sensor_id;sensor_type;location;lat;lon;timestamp;P1;durP1;ratioP1;P2;durP2;ratioP2
57561;SDS011;43397;51.530;5.974;2023-01-31T00:01:33;26.55;;;8.23;;
57561;SDS011;43397;51.530;5.974;2023-01-31T00:04:00;30.83;;;8.68;;
57561;SDS011;43397;51.530;5.974;2023-01-31T00:06:28;27.70;;;8.05;;
57561;SDS011;43397;51.530;5.974;2023-01-31T00:08:55;24.33;;;7.95;;
57561;SDS011;43397;51.530;5.974;2023-01-31T00:11:25;29.65;;;9.70;;
57561;SDS011;43397;51.530;5.974;2023-01-31T00:13:52;22.35;;;7.55;;
57561;SDS011;43397;51.530;5.974;2023-01-31T00:16:19;21.92;;;8.15;;
57561;SDS011;43397;51.530;5.974;2023-01-31T00:18:45;21.92;;;7.95;;
57561;SDS011;43397;51.530;5.974;2023-01-31T00:21:12;25.77;;;8.93;;
57561;SDS011;43397;51.530;5.974;2023-01-31T00:23:40;26.05;;;7.95;;
57561;SDS011;43397;51.530;5.974;2023-01-31T00:26:10;28.15;;;8.43;;
57561;SDS011;43397;51.530;5.974;2023-01-31T00:28:39;22.92;;;7.40;;
57561;SDS011;43397;51.530;5.974;2023-01-31T00:31:06;29.48;;;8.13;;
57561;SDS011;43397;51.530;5.974;2023-01-31T00:33:32;22.73;;;7.63;;
57561;SDS011;43397;51.530;5.974;2023-01-31T00:35:58;27.15;;;8.55;;
57561;SDS011;43397;51.530;5.974;2023-01-31T00:38:26;18.35;;;7.20;;
57561;SDS011;43397;51.530;5.974;2023-01-31T00:40:52;23.77;;;7.68;;
57561;SDS011;43397;51.530;5.974;2023-01-31T00:43:18;18.98;;;6.35;;
57561;SDS011;43397;51.530;5.974;2023-01-31T00:45:45;22.30;;;8.10;;
57561;SDS011;43397;51.530;5.974;2023-01-31T00:48:11;17.67;;;7.28;;
57561;SDS011;43397;51.530;5.974;2023-01-31T00:50:37;20.10;;;7.10;;
57561;SDS011;43397;51.530;5.974;2023-01-31T00:53:03;24.80;;;7.10;;
57561;SDS011;43397;51.530;5.974;2023-01-31T00:55:29;21.40;;;6.20;;
57561;SDS011;43397;51.530;5.974;2023-01-31T00:57:55;15.95;;;6.32;;
57561;SDS011;43397;51.530;5.974;2023-01-31T01:00:21;20.52;;;6.72;;
57561;SDS011;43397;51.530;5.974;2023-01-31T01:02:48;20.55;;;7.30;;
57561;SDS011;43397;51.530;5.974;2023-01-31T01:05:14;24.73;;;6.45;;
57561;SDS011;43397;51.530;5.974;2023-01-31T01:07:39;16.58;;;6.03;;
57561;SDS011;43397;51.530;5.974;2023-01-31T01:10:05;27.67;;;7.70;;
57561;SDS011;43397;51.530;5.974;2023-01-31T01:12:32;19.95;;;6.15;;
57561;SDS011;43397;51.530;5.974;2023-01-31T01:14:58;22.60;;;6.35;;
57561;SDS011;43397;51.530;5.974;2023-01-31T01:17:23;28.73;;;7.35;;
57561;SDS011;43397;51.530;5.974;2023-01-31T01:19:50;24.52;;;7.03;;
57561;SDS011;43397;51.530;5.974;2023-01-31T01:22:16;23.25;;;7.63;;
57561;SDS011;43397;51.530;5.974;2023-01-31T01:24:42;24.65;;;7.20;;
57561;SDS011;43397;51.530;5.974;2023-01-31T01:27:08;22.75;;;7.30;;
57561;SDS011;43397;51.530;5.974;2023-01-31T01:29:35;24.52;;;8.65;;
57561;SDS011;43397;51.530;5.974;2023-01-31T01:32:01;26.55;;;8.35;;
57561;SDS011;43397;51.530;5.974;2023-01-31T01:34:27;26.67;;;8.55;;
57561;SDS011;43397;51.530;5.974;2023-01-31T01:36:54;25.60;;;9.57;;
57561;SDS011;43397;51.530;5.974;2023-01-31T01:39:20;31.30;;;9.27;;
57561;SDS011;43397;51.530;5.974;2023-01-31T01:41:46;28.92;;;9.23;;
57561;SDS011;43397;51.530;5.974;2023-01-31T01:47:12;26.40;;;8.43;;
57561;SDS011;43397;51.530;5.974;2023-01-31T01:49:42;21.98;;;7.28;;
57561;SDS011;43397;51.530;5.974;2023-01-31T01:52:14;21.27;;;6.90;;
57561;SDS011;43397;51.530;5.974;2023-01-31T01:54:42;17.38;;;6.45;;
57561;SDS011;43397;51.530;5.974;2023-01-31T01:57:12;23.88;;;7.55;;
57561;SDS011;43397;51.530;5.974;2023-01-31T01:59:42;26.38;;;7.10;;
57561;SDS011;43397;51.530;5.974;2023-01-31T02:02:11;25.20;;;7.50;;
57561;SDS011;43397;51.530;5.974;2023-01-31T02:04:38;22.50;;;7.15;;
57561;SDS011;43397;51.530;5.974;2023-01-31T02:07:06;23.30;;;7.63;;
57561;SDS011;43397;51.530;5.974;2023-01-31T02:09:35;21.75;;;9.85;;
57561;SDS011;43397;51.530;5.974;2023-01-31T02:12:06;19.00;;;7.75;;
57561;SDS011;43397;51.530;5.974;2023-01-31T02:14:34;21.83;;;7.03;;
57561;SDS011;43397;51.530;5.974;2023-01-31T02:17:00;21.88;;;8.55;;
57561;SDS011;43397;51.530;5.974;2023-01-31T02:19:28;22.10;;;7.60;;
57561;SDS011;43397;51.530;5.974;2023-01-31T02:22:07;24.67;;;7.82;;
57561;SDS011;43397;51.530;5.974;2023-01-31T02:24:46;19.08;;;7.85;;
57561;SDS011;43397;51.530;5.974;2023-01-31T02:27:47;22.10;;;8.35;;
57561;SDS011;43397;51.530;5.974;2023-01-31T02:33:32;23.25;;;8.65;;
57561;SDS011;43397;51.530;5.974;2023-01-31T02:36:07;21.80;;;9.05;;
57561;SDS011;43397;51.530;5.974;2023-01-31T02:38:45;28.25;;;10.18;;
57561;SDS011;43397;51.530;5.974;2023-01-31T02:41:21;30.15;;;10.95;;
57561;SDS011;43397;51.530;5.974;2023-01-31T02:43:55;26.92;;;9.93;;
57561;SDS011;43397;51.530;5.974;2023-01-31T02:46:25;24.42;;;10.82;;
57561;SDS011;43397;51.530;5.974;2023-01-31T02:49:03;33.08;;;11.98;;
57561;SDS011;43397;51.530;5.974;2023-01-31T02:51:37;22.25;;;10.30;;
57561;SDS011;43397;51.530;5.974;2023-01-31T02:54:08;28.00;;;11.40;;
57561;SDS011;43397;51.530;5.974;2023-01-31T02:56:40;31.73;;;12.20;;
57561;SDS011;43397;51.530;5.974;2023-01-31T02:59:10;27.95;;;11.52;;
57561;SDS011;43397;51.530;5.974;2023-01-31T03:01:39;26.08;;;11.52;;
57561;SDS011;43397;51.530;5.974;2023-01-31T03:12:00;34.58;;;13.75;;
57561;SDS011;43397;51.530;5.974;2023-01-31T03:14:38;30.15;;;13.52;;
57561;SDS011;43397;51.530;5.974;2023-01-31T03:17:11;29.42;;;12.98;;
57561;SDS011;43397;51.530;5.974;2023-01-31T03:19:45;36.95;;;14.10;;
57561;SDS011;43397;51.530;5.974;2023-01-31T03:22:17;28.77;;;13.30;;
57561;SDS011;43397;51.530;5.974;2023-01-31T03:24:49;32.03;;;15.55;;
57561;SDS011;43397;51.530;5.974;2023-01-31T03:27:16;29.77;;;15.07;;
57561;SDS011;43397;51.530;5.974;2023-01-31T03:29:43;37.70;;;14.88;;
57561;SDS011;43397;51.530;5.974;2023-01-31T03:32:10;43.10;;;19.40;;
57561;SDS011;43397;51.530;5.974;2023-01-31T03:34:44;33.40;;;15.23;;
57561;SDS011;43397;51.530;5.974;2023-01-31T03:37:11;32.53;;;15.63;;
57561;SDS011;43397;51.530;5.974;2023-01-31T03:39:45;37.67;;;17.88;;
57561;SDS011;43397;51.530;5.974;2023-01-31T03:42:20;42.40;;;19.20;;
57561;SDS011;43397;51.530;5.974;2023-01-31T03:44:51;40.28;;;19.08;;
57561;SDS011;43397;51.530;5.974;2023-01-31T03:47:22;33.42;;;18.52;;
57561;SDS011;43397;51.530;5.974;2023-01-31T03:49:51;43.70;;;20.65;;
57561;SDS011;43397;51.530;5.974;2023-01-31T03:52:21;42.33;;;22.65;;
57561;SDS011;43397;51.530;5.974;2023-01-31T03:54:52;44.35;;;24.13;;
57561;SDS011;43397;51.530;5.974;2023-01-31T03:57:23;57.70;;;25.42;;
57561;SDS011;43397;51.530;5.974;2023-01-31T03:59:54;51.78;;;25.20;;
57561;SDS011;43397;51.530;5.974;2023-01-31T04:02:25;48.03;;;25.75;;
57561;SDS011;43397;51.530;5.974;2023-01-31T04:04:58;49.60;;;25.95;;
57561;SDS011;43397;51.530;5.974;2023-01-31T04:07:28;54.65;;;25.88;;
57561;SDS011;43397;51.530;5.974;2023-01-31T04:09:54;58.97;;;30.25;;
57561;SDS011;43397;51.530;5.974;2023-01-31T04:12:20;53.75;;;28.55;;
57561;SDS011;43397;51.530;5.974;2023-01-31T04:14:45;58.08;;;29.15;;
57561;SDS011;43397;51.530;5.974;2023-01-31T04:17:11;47.05;;;26.42;;
57561;SDS011;43397;51.530;5.974;2023-01-31T04:19:37;50.42;;;28.23;;
57561;SDS011;43397;51.530;5.974;2023-01-31T04:22:04;52.17;;;27.85;;
57561;SDS011;43397;51.530;5.974;2023-01-31T04:24:29;57.42;;;31.83;;
57561;SDS011;43397;51.530;5.974;2023-01-31T04:26:55;52.15;;;28.92;;
57561;SDS011;43397;51.530;5.974;2023-01-31T04:29:20;50.90;;;29.40;;
57561;SDS011;43397;51.530;5.974;2023-01-31T04:31:46;53.47;;;29.90;;
57561;SDS011;43397;51.530;5.974;2023-01-31T04:34:12;47.10;;;30.13;;
57561;SDS011;43397;51.530;5.974;2023-01-31T04:36:38;57.65;;;29.92;;
57561;SDS011;43397;51.530;5.974;2023-01-31T04:39:04;52.03;;;29.05;;
57561;SDS011;43397;51.530;5.974;2023-01-31T04:41:30;57.17;;;29.83;;
57561;SDS011;43397;51.530;5.974;2023-01-31T04:43:56;52.65;;;28.25;;
57561;SDS011;43397;51.530;5.974;2023-01-31T04:46:21;50.00;;;28.33;;
57561;SDS011;43397;51.530;5.974;2023-01-31T04:48:47;60.65;;;30.38;;
57561;SDS011;43397;51.530;5.974;2023-01-31T04:51:13;57.92;;;27.77;;
57561;SDS011;43397;51.530;5.974;2023-01-31T04:53:38;48.42;;;26.25;;
57561;SDS011;43397;51.530;5.974;2023-01-31T04:56:06;57.15;;;26.98;;
57561;SDS011;43397;51.530;5.974;2023-01-31T04:58:31;46.42;;;24.58;;
57561;SDS011;43397;51.530;5.974;2023-01-31T05:00:57;52.33;;;24.58;;
57561;SDS011;43397;51.530;5.974;2023-01-31T05:03:23;41.42;;;23.42;;
57561;SDS011;43397;51.530;5.974;2023-01-31T05:05:49;49.10;;;23.38;;
57561;SDS011;43397;51.530;5.974;2023-01-31T05:08:15;40.92;;;22.00;;
57561;SDS011;43397;51.530;5.974;2023-01-31T05:10:42;38.65;;;20.88;;
57561;SDS011;43397;51.530;5.974;2023-01-31T05:13:09;36.83;;;20.25;;
57561;SDS011;43397;51.530;5.974;2023-01-31T05:15:35;36.28;;;21.38;;
57561;SDS011;43397;51.530;5.974;2023-01-31T05:18:01;40.47;;;19.33;;
57561;SDS011;43397;51.530;5.974;2023-01-31T05:20:26;39.17;;;21.48;;
57561;SDS011;43397;51.530;5.974;2023-01-31T05:22:52;34.05;;;17.27;;
57561;SDS011;43397;51.530;5.974;2023-01-31T05:25:18;40.42;;;19.13;;
57561;SDS011;43397;51.530;5.974;2023-01-31T05:27:44;39.97;;;17.35;;
57561;SDS011;43397;51.530;5.974;2023-01-31T05:30:11;35.53;;;17.35;;
57561;SDS011;43397;51.530;5.974;2023-01-31T05:32:37;40.70;;;18.15;;
57561;SDS011;43397;51.530;5.974;2023-01-31T05:35:03;36.75;;;17.55;;
57561;SDS011;43397;51.530;5.974;2023-01-31T05:37:30;41.60;;;16.52;;
57561;SDS011;43397;51.530;5.974;2023-01-31T05:39:55;33.60;;;17.45;;
57561;SDS011;43397;51.530;5.974;2023-01-31T05:42:22;35.10;;;17.95;;
57561;SDS011;43397;51.530;5.974;2023-01-31T05:44:47;37.63;;;17.13;;
57561;SDS011;43397;51.530;5.974;2023-01-31T05:47:14;41.17;;;18.73;;
57561;SDS011;43397;51.530;5.974;2023-01-31T05:49:40;34.50;;;15.95;;
57561;SDS011;43397;51.530;5.974;2023-01-31T05:52:05;32.88;;;16.05;;
57561;SDS011;43397;51.530;5.974;2023-01-31T05:54:31;38.78;;;18.13;;
57561;SDS011;43397;51.530;5.974;2023-01-31T05:56:57;28.67;;;16.90;;
57561;SDS011;43397;51.530;5.974;2023-01-31T05:59:22;34.25;;;16.65;;
57561;SDS011;43397;51.530;5.974;2023-01-31T06:01:48;32.53;;;15.63;;
57561;SDS011;43397;51.530;5.974;2023-01-31T06:04:15;39.33;;;17.88;;
57561;SDS011;43397;51.530;5.974;2023-01-31T06:06:41;43.90;;;16.45;;
57561;SDS011;43397;51.530;5.974;2023-01-31T06:09:07;35.40;;;16.25;;
57561;SDS011;43397;51.530;5.974;2023-01-31T06:11:32;31.33;;;14.90;;
57561;SDS011;43397;51.530;5.974;2023-01-31T06:13:58;31.83;;;16.67;;
57561;SDS011;43397;51.530;5.974;2023-01-31T06:16:24;33.33;;;16.33;;
57561;SDS011;43397;51.530;5.974;2023-01-31T06:18:50;33.65;;;15.88;;
57561;SDS011;43397;51.530;5.974;2023-01-31T06:21:17;31.52;;;14.48;;
57561;SDS011;43397;51.530;5.974;2023-01-31T06:23:42;37.65;;;16.20;;
57561;SDS011;43397;51.530;5.974;2023-01-31T06:26:08;33.60;;;16.35;;
57561;SDS011;43397;51.530;5.974;2023-01-31T06:28:35;31.20;;;14.98;;
57561;SDS011;43397;51.530;5.974;2023-01-31T06:31:04;30.58;;;15.60;;
57561;SDS011;43397;51.530;5.974;2023-01-31T06:33:30;35.50;;;15.25;;
57561;SDS011;43397;51.530;5.974;2023-01-31T06:35:57;31.95;;;15.07;;
57561;SDS011;43397;51.530;5.974;2023-01-31T06:38:25;36.35;;;15.07;;
57561;SDS011;43397;51.530;5.974;2023-01-31T06:40:51;37.08;;;16.60;;
57561;SDS011;43397;51.530;5.974;2023-01-31T06:43:17;38.20;;;17.83;;
57561;SDS011;43397;51.530;5.974;2023-01-31T06:45:43;38.72;;;17.50;;
57561;SDS011;43397;51.530;5.974;2023-01-31T06:48:09;39.47;;;19.98;;
57561;SDS011;43397;51.530;5.974;2023-01-31T06:50:34;32.72;;;17.42;;
57561;SDS011;43397;51.530;5.974;2023-01-31T06:53:00;42.80;;;18.10;;
57561;SDS011;43397;51.530;5.974;2023-01-31T06:55:27;35.85;;;17.63;;
57561;SDS011;43397;51.530;5.974;2023-01-31T06:57:53;34.85;;;18.15;;
57561;SDS011;43397;51.530;5.974;2023-01-31T07:00:19;29.27;;;16.73;;
57561;SDS011;43397;51.530;5.974;2023-01-31T07:02:45;35.92;;;18.50;;
57561;SDS011;43397;51.530;5.974;2023-01-31T07:05:12;35.22;;;17.77;;
57561;SDS011;43397;51.530;5.974;2023-01-31T07:07:38;33.05;;;15.82;;
57561;SDS011;43397;51.530;5.974;2023-01-31T07:10:03;32.65;;;16.50;;
57561;SDS011;43397;51.530;5.974;2023-01-31T07:12:31;31.02;;;16.20;;
57561;SDS011;43397;51.530;5.974;2023-01-31T07:14:57;35.40;;;16.20;;
57561;SDS011;43397;51.530;5.974;2023-01-31T07:17:22;27.33;;;13.60;;
57561;SDS011;43397;51.530;5.974;2023-01-31T07:19:48;24.85;;;14.02;;
57561;SDS011;43397;51.530;5.974;2023-01-31T07:22:14;30.55;;;12.50;;
57561;SDS011;43397;51.530;5.974;2023-01-31T07:24:40;28.45;;;13.38;;
57561;SDS011;43397;51.530;5.974;2023-01-31T07:27:05;29.42;;;13.15;;
57561;SDS011;43397;51.530;5.974;2023-01-31T07:29:32;29.40;;;13.27;;
57561;SDS011;43397;51.530;5.974;2023-01-31T07:31:58;34.50;;;15.20;;
57561;SDS011;43397;51.530;5.974;2023-01-31T07:34:24;32.60;;;13.52;;
57561;SDS011;43397;51.530;5.974;2023-01-31T07:36:49;28.13;;;12.68;;
57561;SDS011;43397;51.530;5.974;2023-01-31T07:39:15;26.45;;;14.18;;
57561;SDS011;43397;51.530;5.974;2023-01-31T07:41:41;30.33;;;13.00;;
57561;SDS011;43397;51.530;5.974;2023-01-31T07:44:07;24.67;;;12.82;;
57561;SDS011;43397;51.530;5.974;2023-01-31T07:46:35;27.08;;;12.80;;
57561;SDS011;43397;51.530;5.974;2023-01-31T07:49:01;29.10;;;12.73;;
57561;SDS011;43397;51.530;5.974;2023-01-31T07:51:27;27.85;;;11.68;;
57561;SDS011;43397;51.530;5.974;2023-01-31T07:53:53;28.50;;;12.38;;
57561;SDS011;43397;51.530;5.974;2023-01-31T07:56:20;21.55;;;11.60;;
57561;SDS011;43397;51.530;5.974;2023-01-31T07:58:47;31.88;;;12.90;;
57561;SDS011;43397;51.530;5.974;2023-01-31T08:01:14;25.33;;;11.57;;
57561;SDS011;43397;51.530;5.974;2023-01-31T08:03:42;27.35;;;12.73;;
57561;SDS011;43397;51.530;5.974;2023-01-31T08:06:09;19.50;;;11.23;;
57561;SDS011;43397;51.530;5.974;2023-01-31T08:08:37;27.60;;;12.23;;
57561;SDS011;43397;51.530;5.974;2023-01-31T08:11:04;22.25;;;11.00;;
57561;SDS011;43397;51.530;5.974;2023-01-31T08:13:30;21.38;;;9.55;;
57561;SDS011;43397;51.530;5.974;2023-01-31T08:15:56;29.73;;;10.68;;
57561;SDS011;43397;51.530;5.974;2023-01-31T08:18:22;28.65;;;11.35;;
57561;SDS011;43397;51.530;5.974;2023-01-31T08:20:49;22.85;;;9.93;;
57561;SDS011;43397;51.530;5.974;2023-01-31T08:23:15;26.67;;;10.18;;
57561;SDS011;43397;51.530;5.974;2023-01-31T08:25:40;19.90;;;9.05;;
57561;SDS011;43397;51.530;5.974;2023-01-31T08:28:06;21.55;;;9.48;;
57561;SDS011;43397;51.530;5.974;2023-01-31T08:30:32;27.13;;;10.32;;
57561;SDS011;43397;51.530;5.974;2023-01-31T08:32:58;17.15;;;8.30;;
57561;SDS011;43397;51.530;5.974;2023-01-31T08:35:24;19.27;;;8.35;;
57561;SDS011;43397;51.530;5.974;2023-01-31T08:37:52;17.90;;;8.13;;
57561;SDS011;43397;51.530;5.974;2023-01-31T08:40:18;22.95;;;9.30;;
57561;SDS011;43397;51.530;5.974;2023-01-31T08:42:43;26.45;;;10.20;;
57561;SDS011;43397;51.530;5.974;2023-01-31T08:45:18;18.45;;;8.02;;
57561;SDS011;43397;51.530;5.974;2023-01-31T08:47:43;23.38;;;9.48;;
57561;SDS011;43397;51.530;5.974;2023-01-31T08:50:10;25.40;;;8.68;;
57561;SDS011;43397;51.530;5.974;2023-01-31T08:52:36;22.73;;;9.77;;
57561;SDS011;43397;51.530;5.974;2023-01-31T08:55:03;17.05;;;7.85;;
57561;SDS011;43397;51.530;5.974;2023-01-31T08:57:30;20.02;;;9.25;;
57561;SDS011;43397;51.530;5.974;2023-01-31T08:59:55;17.23;;;8.57;;
57561;SDS011;43397;51.530;5.974;2023-01-31T09:02:21;19.23;;;8.05;;
57561;SDS011;43397;51.530;5.974;2023-01-31T09:04:47;17.58;;;7.63;;
57561;SDS011;43397;51.530;5.974;2023-01-31T09:07:12;20.88;;;7.97;;
57561;SDS011;43397;51.530;5.974;2023-01-31T09:09:38;18.85;;;8.15;;
57561;SDS011;43397;51.530;5.974;2023-01-31T09:12:05;17.15;;;7.15;;
57561;SDS011;43397;51.530;5.974;2023-01-31T09:14:31;20.55;;;8.27;;
57561;SDS011;43397;51.530;5.974;2023-01-31T09:16:57;29.73;;;9.18;;
57561;SDS011;43397;51.530;5.974;2023-01-31T09:19:23;19.25;;;7.88;;
57561;SDS011;43397;51.530;5.974;2023-01-31T09:21:48;17.80;;;7.32;;
57561;SDS011;43397;51.530;5.974;2023-01-31T09:24:14;18.00;;;6.72;;
57561;SDS011;43397;51.530;5.974;2023-01-31T09:26:40;14.57;;;6.45;;
57561;SDS011;43397;51.530;5.974;2023-01-31T09:29:07;16.08;;;6.78;;
57561;SDS011;43397;51.530;5.974;2023-01-31T09:31:32;17.05;;;6.78;;
57561;SDS011;43397;51.530;5.974;2023-01-31T09:33:58;18.95;;;6.80;;
57561;SDS011;43397;51.530;5.974;2023-01-31T09:36:23;21.27;;;6.50;;
57561;SDS011;43397;51.530;5.974;2023-01-31T09:38:52;16.60;;;7.10;;
57561;SDS011;43397;51.530;5.974;2023-01-31T09:41:21;20.83;;;5.97;;
57561;SDS011;43397;51.530;5.974;2023-01-31T09:43:51;20.17;;;6.60;;
57561;SDS011;43397;51.530;5.974;2023-01-31T09:46:24;19.38;;;6.80;;
57561;SDS011;43397;51.530;5.974;2023-01-31T09:48:53;11.93;;;5.53;;
57561;SDS011;43397;51.530;5.974;2023-01-31T09:51:22;15.13;;;6.40;;
57561;SDS011;43397;51.530;5.974;2023-01-31T09:53:48;16.33;;;5.93;;
57561;SDS011;43397;51.530;5.974;2023-01-31T09:56:25;15.40;;;5.60;;
57561;SDS011;43397;51.530;5.974;2023-01-31T09:59:00;14.82;;;5.75;;
57561;SDS011;43397;51.530;5.974;2023-01-31T10:01:34;19.30;;;7.43;;
57561;SDS011;43397;51.530;5.974;2023-01-31T10:04:07;11.75;;;5.05;;
57561;SDS011;43397;51.530;5.974;2023-01-31T10:06:46;13.45;;;6.07;;
57561;SDS011;43397;51.530;5.974;2023-01-31T10:09:19;18.20;;;6.95;;
57561;SDS011;43397;51.530;5.974;2023-01-31T10:11:51;15.40;;;6.07;;
57561;SDS011;43397;51.530;5.974;2023-01-31T10:14:24;19.08;;;6.88;;
57561;SDS011;43397;51.530;5.974;2023-01-31T10:16:57;13.73;;;6.70;;
57561;SDS011;43397;51.530;5.974;2023-01-31T10:19:30;15.85;;;7.07;;
57561;SDS011;43397;51.530;5.974;2023-01-31T10:22:03;13.15;;;6.45;;
57561;SDS011;43397;51.530;5.974;2023-01-31T10:24:32;21.83;;;7.28;;
57561;SDS011;43397;51.530;5.974;2023-01-31T10:27:04;18.42;;;6.95;;
57561;SDS011;43397;51.530;5.974;2023-01-31T10:29:38;16.63;;;6.97;;
57561;SDS011;43397;51.530;5.974;2023-01-31T10:32:11;19.52;;;7.20;;
57561;SDS011;43397;51.530;5.974;2023-01-31T10:34:44;19.05;;;7.55;;
57561;SDS011;43397;51.530;5.974;2023-01-31T10:37:15;20.27;;;8.45;;
57561;SDS011;43397;51.530;5.974;2023-01-31T10:39:51;21.13;;;7.97;;
57561;SDS011;43397;51.530;5.974;2023-01-31T10:42:20;17.33;;;8.00;;
57561;SDS011;43397;51.530;5.974;2023-01-31T10:44:54;17.38;;;8.45;;
57561;SDS011;43397;51.530;5.974;2023-01-31T10:47:26;23.30;;;9.05;;
57561;SDS011;43397;51.530;5.974;2023-01-31T10:49:55;23.35;;;8.88;;
57561;SDS011;43397;51.530;5.974;2023-01-31T10:52:25;21.38;;;9.23;;
57561;SDS011;43397;51.530;5.974;2023-01-31T10:55:08;22.00;;;8.82;;
57561;SDS011;43397;51.530;5.974;2023-01-31T10:57:50;24.15;;;9.60;;
57561;SDS011;43397;51.530;5.974;2023-01-31T11:00:18;19.90;;;8.50;;
57561;SDS011;43397;51.530;5.974;2023-01-31T11:02:48;19.33;;;10.35;;
57561;SDS011;43397;51.530;5.974;2023-01-31T11:05:14;19.05;;;10.15;;
57561;SDS011;43397;51.530;5.974;2023-01-31T11:07:43;20.95;;;9.35;;
57561;SDS011;43397;51.530;5.974;2023-01-31T11:10:19;18.67;;;8.70;;
57561;SDS011;43397;51.530;5.974;2023-01-31T11:12:51;22.95;;;10.70;;
57561;SDS011;43397;51.530;5.974;2023-01-31T11:15:18;21.75;;;10.52;;
57561;SDS011;43397;51.530;5.974;2023-01-31T11:17:48;20.95;;;10.15;;
57561;SDS011;43397;51.530;5.974;2023-01-31T11:20:20;20.67;;;9.65;;
57561;SDS011;43397;51.530;5.974;2023-01-31T11:22:48;26.40;;;10.18;;
57561;SDS011;43397;51.530;5.974;2023-01-31T11:25:15;18.70;;;9.52;;
57561;SDS011;43397;51.530;5.974;2023-01-31T11:27:43;22.35;;;11.40;;
57561;SDS011;43397;51.530;5.974;2023-01-31T11:30:17;24.15;;;11.18;;
57561;SDS011;43397;51.530;5.974;2023-01-31T11:32:46;23.40;;;10.15;;
57561;SDS011;43397;51.530;5.974;2023-01-31T11:35:21;21.33;;;10.13;;
57561;SDS011;43397;51.530;5.974;2023-01-31T11:37:50;16.92;;;8.63;;
57561;SDS011;43397;51.530;5.974;2023-01-31T11:40:18;20.25;;;9.07;;
57561;SDS011;43397;51.530;5.974;2023-01-31T11:42:49;21.20;;;9.93;;
57561;SDS011;43397;51.530;5.974;2023-01-31T11:47:42;27.83;;;10.20;;
57561;SDS011;43397;51.530;5.974;2023-01-31T11:50:19;23.80;;;12.33;;
57561;SDS011;43397;51.530;5.974;2023-01-31T11:52:46;21.10;;;11.55;;
57561;SDS011;43397;51.530;5.974;2023-01-31T11:55:18;20.02;;;11.18;;
57561;SDS011;43397;51.530;5.974;2023-01-31T11:57:44;21.45;;;12.10;;
57561;SDS011;43397;51.530;5.974;2023-01-31T12:00:18;21.52;;;10.02;;
57561;SDS011;43397;51.530;5.974;2023-01-31T12:02:47;19.88;;;12.15;;
57561;SDS011;43397;51.530;5.974;2023-01-31T12:05:19;21.92;;;11.30;;
57561;SDS011;43397;51.530;5.974;2023-01-31T12:07:46;24.55;;;13.63;;
57561;SDS011;43397;51.530;5.974;2023-01-31T12:10:33;22.70;;;13.23;;
57561;SDS011;43397;51.530;5.974;2023-01-31T12:13:10;20.65;;;12.77;;
57561;SDS011;43397;51.530;5.974;2023-01-31T12:15:44;20.05;;;11.48;;
57561;SDS011;43397;51.530;5.974;2023-01-31T12:18:16;20.17;;;13.00;;
57561;SDS011;43397;51.530;5.974;2023-01-31T12:20:49;26.08;;;13.23;;
57561;SDS011;43397;51.530;5.974;2023-01-31T12:23:25;24.90;;;14.30;;
57561;SDS011;43397;51.530;5.974;2023-01-31T12:26:04;26.35;;;13.98;;
57561;SDS011;43397;51.530;5.974;2023-01-31T12:28:38;22.75;;;11.40;;
57561;SDS011;43397;51.530;5.974;2023-01-31T12:31:24;22.63;;;14.07;;
57561;SDS011;43397;51.530;5.974;2023-01-31T12:34:12;22.45;;;14.77;;
57561;SDS011;43397;51.530;5.974;2023-01-31T12:36:54;21.10;;;13.18;;
57561;SDS011;43397;51.530;5.974;2023-01-31T12:39:40;24.73;;;14.32;;
57561;SDS011;43397;51.530;5.974;2023-01-31T12:42:20;25.88;;;14.77;;
57561;SDS011;43397;51.530;5.974;2023-01-31T12:44:56;19.95;;;13.48;;
57561;SDS011;43397;51.530;5.974;2023-01-31T12:47:39;26.00;;;16.27;;
57561;SDS011;43397;51.530;5.974;2023-01-31T12:50:29;28.90;;;15.55;;
57561;SDS011;43397;51.530;5.974;2023-01-31T12:56:05;25.80;;;17.30;;
57561;SDS011;43397;51.530;5.974;2023-01-31T12:58:45;27.58;;;17.15;;
57561;SDS011;43397;51.530;5.974;2023-01-31T13:01:19;27.55;;;17.73;;
57561;SDS011;43397;51.530;5.974;2023-01-31T13:03:57;25.33;;;16.85;;
57561;SDS011;43397;51.530;5.974;2023-01-31T13:06:30;34.63;;;18.50;;
57561;SDS011;43397;51.530;5.974;2023-01-31T13:09:03;38.47;;;19.92;;
57561;SDS011;43397;51.530;5.974;2023-01-31T13:11:36;25.90;;;16.50;;
57561;SDS011;43397;51.530;5.974;2023-01-31T13:14:05;36.65;;;20.48;;
57561;SDS011;43397;51.530;5.974;2023-01-31T13:16:39;27.50;;;17.27;;
57561;SDS011;43397;51.530;5.974;2023-01-31T13:19:09;34.90;;;20.95;;
57561;SDS011;43397;51.530;5.974;2023-01-31T13:21:40;34.75;;;23.02;;
57561;SDS011;43397;51.530;5.974;2023-01-31T13:24:14;35.58;;;20.83;;
57561;SDS011;43397;51.530;5.974;2023-01-31T13:26:44;35.33;;;19.05;;
57561;SDS011;43397;51.530;5.974;2023-01-31T13:31:41;28.50;;;16.45;;
57561;SDS011;43397;51.530;5.974;2023-01-31T13:34:12;25.40;;;16.67;;
57561;SDS011;43397;51.530;5.974;2023-01-31T13:36:42;30.92;;;18.83;;
57561;SDS011;43397;51.530;5.974;2023-01-31T13:39:14;28.55;;;17.42;;
57561;SDS011;43397;51.530;5.974;2023-01-31T13:41:44;28.45;;;17.88;;
57561;SDS011;43397;51.530;5.974;2023-01-31T13:44:11;28.02;;;17.35;;
57561;SDS011;43397;51.530;5.974;2023-01-31T13:46:40;26.90;;;18.52;;
57561;SDS011;43397;51.530;5.974;2023-01-31T13:49:14;35.13;;;19.25;;
57561;SDS011;43397;51.530;5.974;2023-01-31T13:51:45;32.08;;;19.52;;
57561;SDS011;43397;51.530;5.974;2023-01-31T13:54:16;20.38;;;14.13;;
57561;SDS011;43397;51.530;5.974;2023-01-31T13:56:48;24.73;;;17.70;;
57561;SDS011;43397;51.530;5.974;2023-01-31T14:01:46;30.07;;;18.23;;
57561;SDS011;43397;51.530;5.974;2023-01-31T14:04:23;31.92;;;19.67;;
57561;SDS011;43397;51.530;5.974;2023-01-31T14:06:54;32.85;;;15.90;;
57561;SDS011;43397;51.530;5.974;2023-01-31T14:09:24;29.77;;;17.08;;
57561;SDS011;43397;51.530;5.974;2023-01-31T14:11:51;33.55;;;20.25;;
57561;SDS011;43397;51.530;5.974;2023-01-31T14:14:19;30.42;;;16.63;;
57561;SDS011;43397;51.530;5.974;2023-01-31T14:16:53;28.52;;;18.33;;
57561;SDS011;43397;51.530;5.974;2023-01-31T14:22:29;30.15;;;18.65;;
57561;SDS011;43397;51.530;5.974;2023-01-31T14:24:58;27.40;;;17.80;;
57561;SDS011;43397;51.530;5.974;2023-01-31T14:29:53;26.33;;;17.50;;
57561;SDS011;43397;51.530;5.974;2023-01-31T14:32:25;30.17;;;16.80;;
57561;SDS011;43397;51.530;5.974;2023-01-31T14:34:55;26.00;;;17.13;;
57561;SDS011;43397;51.530;5.974;2023-01-31T14:37:24;25.02;;;16.10;;
57561;SDS011;43397;51.530;5.974;2023-01-31T14:40:05;29.98;;;19.00;;
57561;SDS011;43397;51.530;5.974;2023-01-31T14:42:55;26.35;;;16.98;;
57561;SDS011;43397;51.530;5.974;2023-01-31T14:45:38;27.08;;;16.55;;
57561;SDS011;43397;51.530;5.974;2023-01-31T14:48:20;27.20;;;18.23;;
57561;SDS011;43397;51.530;5.974;2023-01-31T14:51:00;29.15;;;17.10;;
57561;SDS011;43397;51.530;5.974;2023-01-31T14:53:49;30.05;;;17.77;;
57561;SDS011;43397;51.530;5.974;2023-01-31T14:56:34;29.63;;;17.45;;
57561;SDS011;43397;51.530;5.974;2023-01-31T14:59:28;30.88;;;18.85;;
57561;SDS011;43397;51.530;5.974;2023-01-31T15:01:57;28.05;;;16.02;;
57561;SDS011;43397;51.530;5.974;2023-01-31T15:04:25;25.83;;;15.30;;
57561;SDS011;43397;51.530;5.974;2023-01-31T15:06:52;26.73;;;16.05;;
57561;SDS011;43397;51.530;5.974;2023-01-31T15:09:25;21.27;;;14.82;;